Crawford Co (RSV)

 

Airport Diagram
No Airport Diagram Available
Current Weather/Forecast (MVFR Conditions)
METAR KRSV 232335Z AUTO 33016G22KT 10SM OVC012 08/06 A3012 RMK AO2 T00810064
TAF

Airport Information

All Charts
General
Chart Name View
TAKEOFF MINIMUMS
ALTERNATE MINIMUMS
TAKEOFF MINIMUMS
ALTERNATE MINIMUMS

Approaches
Chart Name Download
RNAV (GPS) RWY 09
RNAV (GPS) RWY 17
RNAV (GPS) RWY 27
NDB RWY 17
RNAV (GPS) RWY 09
RNAV (GPS) RWY 17
RNAV (GPS) RWY 27
NDB RWY 17


Airport Statistics
Departures Arrivals Local
All Collected Stats since June 2016: 22 9 4
2020 Stats: 1 1 0
October Stats: 0 0 0

Inbound Traffic (Arrivals) - 0

No inbound traffic.


Outbound Traffic (Departures) - 0

No outbound traffic.


Local Traffic (Pattern) - 0

No local traffic.